Time;durP1;ratioP1;P1;durP2;ratioP2;P2;SDS_P1;SDS_P2;PMS_P1;PMS_P2;Temp;Humidity;BMP_temperature;BMP_pressure;BME280_temperature;BME280_humidity;BME280_pressure;Samples;Min_cycle;Max_cycle;Signal;HPM_P1;HPM_P2
2023/12/07 00:00:57;;;;;;;40.57;18.80;;;;;;;;;;4976689;28;20044;-69
2023/12/07 00:03:22;;;;;;;48.03;19.00;;;;;;;;;;4982209;28;20278;-69
2023/12/07 00:05:47;;;;;;;44.47;17.10;;;;;;;;;;4978868;28;20336;-69
2023/12/07 00:08:12;;;;;;;41.13;18.05;;;;;;;;;;4981517;28;20335;-69
2023/12/07 00:10:37;;;;;;;41.77;16.93;;;;;;;;;;4978322;28;20026;-69
2023/12/07 00:13:03;;;;;;;40.10;17.57;;;;;;;;;;4985456;28;20345;-69
2023/12/07 00:15:28;;;;;;;33.57;16.93;;;;;;;;;;4984980;28;20332;-69
2023/12/07 00:17:53;;;;;;;36.90;17.00;;;;;;;;;;4981933;28;20756;-69
2023/12/07 00:20:18;;;;;;;36.67;16.67;;;;;;;;;;4979186;28;20101;-69
2023/12/07 00:22:43;;;;;;;51.93;17.73;;;;;;;;;;4983488;28;20284;-69
2023/12/07 00:25:08;;;;;;;37.60;17.17;;;;;;;;;;4990770;28;20298;-69
2023/12/07 00:27:34;;;;;;;36.42;16.58;;;;;;;;;;4987269;28;20350;-69
2023/12/07 00:29:59;;;;;;;40.50;16.47;;;;;;;;;;4983272;28;20030;-69
2023/12/07 00:32:24;;;;;;;34.60;16.50;;;;;;;;;;4980232;28;20286;-69
2023/12/07 00:34:49;;;;;;;40.92;17.58;;;;;;;;;;4984432;28;20274;-69
2023/12/07 00:37:14;;;;;;;46.60;18.47;;;;;;;;;;4978107;28;20070;-69
2023/12/07 00:39:40;;;;;;;43.05;17.65;;;;;;;;;;4984015;28;20254;-69
2023/12/07 00:42:05;;;;;;;40.80;17.52;;;;;;;;;;4983191;28;20023;-69
2023/12/07 00:44:31;;;;;;;37.30;16.53;;;;;;;;;;4985354;28;20521;-69
2023/12/07 00:46:56;;;;;;;40.80;16.92;;;;;;;;;;4978730;28;20269;-69
2023/12/07 00:49:21;;;;;;;36.63;15.83;;;;;;;;;;4985730;28;20544;-69
2023/12/07 00:51:47;;;;;;;41.70;17.40;;;;;;;;;;4985935;28;20257;-69
2023/12/07 00:54:13;;;;;;;42.25;19.27;;;;;;;;;;4984263;28;20767;-68
2023/12/07 00:56:38;;;;;;;38.58;17.60;;;;;;;;;;4976428;28;20018;-68
2023/12/07 00:59:03;;;;;;;38.57;16.90;;;;;;;;;;4981831;28;20094;-68
2023/12/07 01:01:29;;;;;;;42.53;16.07;;;;;;;;;;4983037;28;20270;-68
2023/12/07 01:03:54;;;;;;;37.55;16.45;;;;;;;;;;4976664;28;20277;-68
2023/12/07 01:06:19;;;;;;;36.58;16.25;;;;;;;;;;4980222;28;20034;-68
2023/12/07 01:08:44;;;;;;;41.80;17.23;;;;;;;;;;4982640;28;20092;-68
2023/12/07 01:11:10;;;;;;;36.40;16.17;;;;;;;;;;4978633;28;20026;-68
2023/12/07 01:13:36;;;;;;;39.38;17.33;;;;;;;;;;4982842;28;20353;-68
2023/12/07 01:16:01;;;;;;;37.30;15.25;;;;;;;;;;4981011;28;20117;-68
2023/12/07 01:18:26;;;;;;;45.80;18.40;;;;;;;;;;4980810;28;20027;-68
2023/12/07 01:20:51;;;;;;;45.10;18.27;;;;;;;;;;4979659;28;20023;-69
2023/12/07 01:23:17;;;;;;;39.00;17.10;;;;;;;;;;4976958;28;20025;-68
2023/12/07 01:25:42;;;;;;;39.55;18.10;;;;;;;;;;4979433;28;20253;-68
2023/12/07 01:28:07;;;;;;;44.17;18.35;;;;;;;;;;4982889;28;20030;-68
2023/12/07 01:30:32;;;;;;;42.27;17.23;;;;;;;;;;4979105;28;20038;-69
2023/12/07 01:32:57;;;;;;;41.78;18.60;;;;;;;;;;4978164;28;20740;-68
2023/12/07 01:35:22;;;;;;;40.67;16.90;;;;;;;;;;4986126;28;20022;-68
2023/12/07 01:37:48;;;;;;;42.10;18.17;;;;;;;;;;4984033;28;20309;-68
2023/12/07 01:40:14;;;;;;;39.33;17.08;;;;;;;;;;4988887;28;20473;-68
2023/12/07 01:42:40;;;;;;;39.80;17.17;;;;;;;;;;4987608;28;20057;-68
2023/12/07 01:45:05;;;;;;;37.15;18.23;;;;;;;;;;4988418;28;20128;-68
2023/12/07 01:47:31;;;;;;;39.88;16.67;;;;;;;;;;4985992;28;20072;-68
2023/12/07 01:49:56;;;;;;;38.30;16.88;;;;;;;;;;4987308;28;20033;-68
2023/12/07 01:52:23;;;;;;;45.35;19.52;;;;;;;;;;4985557;28;20049;-68
2023/12/07 01:54:48;;;;;;;47.55;19.00;;;;;;;;;;4986229;28;20026;-68
2023/12/07 01:57:14;;;;;;;47.67;18.70;;;;;;;;;;4983450;28;20521;-69
2023/12/07 01:59:39;;;;;;;48.53;20.75;;;;;;;;;;4984130;28;20029;-69
2023/12/07 02:02:04;;;;;;;45.80;16.75;;;;;;;;;;4982331;28;20434;-69
2023/12/07 02:04:29;;;;;;;39.42;17.65;;;;;;;;;;4983581;28;20030;-69
2023/12/07 02:06:56;;;;;;;39.65;16.80;;;;;;;;;;4986780;28;20042;-69
2023/12/07 02:09:22;;;;;;;44.60;17.30;;;;;;;;;;4985534;28;20026;-69
2023/12/07 02:11:47;;;;;;;40.15;17.25;;;;;;;;;;4987333;28;20036;-69
2023/12/07 02:14:12;;;;;;;43.83;17.13;;;;;;;;;;4983334;28;20512;-69
2023/12/07 02:16:58;;;;;;;45.03;18.13;;;;;;;;;;4988313;28;20265;-69
2023/12/07 02:19:33;;;;;;;47.35;18.92;;;;;;;;;;4984764;28;20134;-69
2023/12/07 02:22:04;;;;;;;44.85;18.35;;;;;;;;;;4985318;28;20026;-69
2023/12/07 02:24:33;;;;;;;37.42;18.05;;;;;;;;;;4986728;28;20478;-69
2023/12/07 02:26:58;;;;;;;43.10;18.08;;;;;;;;;;4988580;28;20097;-68
2023/12/07 02:29:23;;;;;;;46.00;17.70;;;;;;;;;;4982947;28;20486;-68
2023/12/07 02:31:48;;;;;;;55.37;19.73;;;;;;;;;;4981307;28;20034;-69
2023/12/07 02:34:14;;;;;;;52.33;19.40;;;;;;;;;;4988336;28;20331;-69
2023/12/07 02:36:39;;;;;;;47.63;18.45;;;;;;;;;;4965584;28;20278;-69
2023/12/07 02:39:06;;;;;;;46.58;17.23;;;;;;;;;;4986908;28;20068;-69
2023/12/07 02:41:31;;;;;;;46.75;16.30;;;;;;;;;;4982632;28;20110;-69
2023/12/07 02:43:57;;;;;;;49.05;14.52;;;;;;;;;;4984153;28;20105;-69
2023/12/07 02:46:23;;;;;;;49.17;17.77;;;;;;;;;;4984718;28;20029;-69
2023/12/07 02:48:48;;;;;;;52.50;19.08;;;;;;;;;;4988714;28;20037;-69
2023/12/07 02:51:13;;;;;;;45.30;17.73;;;;;;;;;;4984943;28;20497;-69
2023/12/07 02:53:38;;;;;;;45.73;19.40;;;;;;;;;;4984488;28;20045;-69
2023/12/07 02:56:03;;;;;;;37.00;16.03;;;;;;;;;;4984327;28;20265;-69
2023/12/07 02:58:29;;;;;;;48.95;19.38;;;;;;;;;;4984879;28;20868;-69
2023/12/07 03:00:54;;;;;;;50.53;18.97;;;;;;;;;;4983550;28;20050;-69
2023/12/07 03:03:19;;;;;;;43.00;17.97;;;;;;;;;;4982775;28;20342;-69
2023/12/07 03:05:44;;;;;;;54.03;19.53;;;;;;;;;;4985349;28;20254;-69
2023/12/07 03:08:09;;;;;;;49.05;19.85;;;;;;;;;;4984997;28;20265;-69
2023/12/07 03:10:34;;;;;;;47.17;18.60;;;;;;;;;;4983044;28;20470;-69
2023/12/07 03:13:00;;;;;;;49.63;19.13;;;;;;;;;;4985067;28;20073;-69
2023/12/07 03:15:26;;;;;;;44.13;20.13;;;;;;;;;;4986169;28;20275;-69
2023/12/07 03:17:51;;;;;;;45.15;19.80;;;;;;;;;;4988943;28;20030;-69
2023/12/07 03:20:16;;;;;;;49.90;19.80;;;;;;;;;;4983459;28;20454;-69
2023/12/07 03:22:42;;;;;;;60.10;19.83;;;;;;;;;;4987467;28;20023;-69
2023/12/07 03:25:07;;;;;;;49.33;19.65;;;;;;;;;;4981391;28;20023;-69
2023/12/07 03:27:32;;;;;;;47.90;20.60;;;;;;;;;;4987155;28;20133;-69
2023/12/07 03:29:57;;;;;;;54.27;20.63;;;;;;;;;;4984052;28;20027;-69
2023/12/07 03:32:22;;;;;;;49.72;18.45;;;;;;;;;;4984264;28;20289;-69
2023/12/07 03:34:47;;;;;;;47.57;20.07;;;;;;;;;;4984186;28;20026;-69
2023/12/07 03:37:13;;;;;;;48.97;17.73;;;;;;;;;;4984209;28;20297;-69
2023/12/07 03:39:38;;;;;;;46.75;19.35;;;;;;;;;;4988309;28;20322;-69
2023/12/07 03:42:03;;;;;;;51.58;20.90;;;;;;;;;;4965932;28;20132;-69
2023/12/07 03:44:28;;;;;;;53.65;20.95;;;;;;;;;;4983898;28;20023;-69
2023/12/07 03:46:54;;;;;;;60.58;21.13;;;;;;;;;;4985987;28;20023;-69
2023/12/07 03:49:20;;;;;;;60.22;21.67;;;;;;;;;;4982868;28;20033;-69
2023/12/07 03:51:45;;;;;;;52.40;20.42;;;;;;;;;;4986699;28;20428;-69
2023/12/07 03:54:11;;;;;;;51.90;19.70;;;;;;;;;;4985252;28;20493;-69
2023/12/07 03:56:36;;;;;;;50.38;21.02;;;;;;;;;;4986924;28;20104;-69
2023/12/07 03:59:01;;;;;;;56.03;20.80;;;;;;;;;;4985143;28;20023;-69
2023/12/07 04:01:27;;;;;;;52.15;20.38;;;;;;;;;;4981191;28;20280;-69
2023/12/07 04:03:52;;;;;;;57.22;20.40;;;;;;;;;;4983922;28;20030;-69
2023/12/07 04:06:18;;;;;;;58.90;21.98;;;;;;;;;;4983361;28;20019;-69
2023/12/07 04:08:43;;;;;;;52.80;20.35;;;;;;;;;;4980715;28;20469;-69
2023/12/07 04:11:08;;;;;;;61.65;23.45;;;;;;;;;;4985555;28;20027;-69
2023/12/07 04:13:33;;;;;;;48.42;19.95;;;;;;;;;;4981952;28;20019;-69
2023/12/07 04:15:59;;;;;;;54.40;21.65;;;;;;;;;;4985886;28;20529;-69
2023/12/07 04:18:24;;;;;;;51.58;21.83;;;;;;;;;;4984483;28;20058;-69
2023/12/07 04:20:49;;;;;;;57.38;21.17;;;;;;;;;;4985856;28;20006;-69
2023/12/07 04:23:14;;;;;;;58.63;20.65;;;;;;;;;;4968201;28;20110;-69
2023/12/07 04:25:40;;;;;;;61.47;21.30;;;;;;;;;;4983235;28;20022;-69
2023/12/07 04:28:05;;;;;;;52.80;20.45;;;;;;;;;;4965016;28;20030;-69
2023/12/07 04:30:30;;;;;;;59.07;20.50;;;;;;;;;;4984700;28;20054;-69
2023/12/07 04:32:55;;;;;;;48.78;20.75;;;;;;;;;;4980375;28;20262;-69
2023/12/07 04:35:20;;;;;;;59.77;22.53;;;;;;;;;;4982815;28;20034;-69
2023/12/07 04:37:45;;;;;;;48.13;20.60;;;;;;;;;;4981823;28;20285;-69
2023/12/07 04:40:11;;;;;;;42.30;16.88;;;;;;;;;;4969724;28;20277;-69
2023/12/07 04:42:36;;;;;;;54.33;21.63;;;;;;;;;;4984759;28;20360;-69
2023/12/07 04:45:01;;;;;;;50.72;20.08;;;;;;;;;;4980692;28;20046;-69
2023/12/07 04:47:27;;;;;;;53.97;20.25;;;;;;;;;;4978940;28;20106;-69
2023/12/07 04:49:52;;;;;;;41.53;16.67;;;;;;;;;;4985585;28;20030;-69
2023/12/07 04:52:17;;;;;;;48.90;19.60;;;;;;;;;;4978747;28;20683;-69
2023/12/07 04:54:42;;;;;;;47.97;19.57;;;;;;;;;;4982489;28;21108;-69
2023/12/07 04:57:08;;;;;;;54.00;20.33;;;;;;;;;;4964442;28;20298;-69
2023/12/07 04:59:34;;;;;;;52.58;20.67;;;;;;;;;;4984071;28;20029;-69
2023/12/07 05:02:00;;;;;;;54.72;20.00;;;;;;;;;;4986653;28;20440;-69
2023/12/07 05:04:25;;;;;;;53.53;21.45;;;;;;;;;;4980996;28;20501;-69
2023/12/07 05:06:50;;;;;;;47.38;20.25;;;;;;;;;;4979728;28;20027;-69
2023/12/07 05:09:15;;;;;;;52.08;20.45;;;;;;;;;;4982804;28;20270;-69
2023/12/07 05:11:41;;;;;;;53.22;20.98;;;;;;;;;;4979719;28;20043;-69
2023/12/07 05:14:07;;;;;;;48.47;19.77;;;;;;;;;;4978604;28;20696;-69
2023/12/07 05:16:32;;;;;;;48.83;19.90;;;;;;;;;;4977466;28;20294;-69
2023/12/07 05:18:57;;;;;;;51.20;19.73;;;;;;;;;;4980358;28;20046;-69
2023/12/07 05:21:22;;;;;;;46.22;19.33;;;;;;;;;;4964152;28;20103;-69
2023/12/07 05:23:48;;;;;;;44.45;18.40;;;;;;;;;;4981599;28;20031;-69
2023/12/07 05:26:13;;;;;;;41.42;16.33;;;;;;;;;;4983829;28;20022;-69
2023/12/07 05:28:38;;;;;;;22.75;8.00;;;;;;;;;;4983321;28;20102;-69
2023/12/07 05:31:03;;;;;;;43.73;14.83;;;;;;;;;;4980521;28;20027;-69
2023/12/07 05:33:29;;;;;;;39.13;15.00;;;;;;;;;;4986728;28;20687;-69
2023/12/07 05:35:54;;;;;;;42.85;17.10;;;;;;;;;;4985600;28;20062;-69
2023/12/07 05:38:19;;;;;;;41.75;17.85;;;;;;;;;;4984289;28;20029;-69
2023/12/07 05:40:44;;;;;;;41.50;17.73;;;;;;;;;;4984472;28;20049;-69
2023/12/07 05:43:09;;;;;;;44.53;16.40;;;;;;;;;;4986903;28;20748;-69
2023/12/07 05:45:34;;;;;;;43.30;17.53;;;;;;;;;;4980059;28;20341;-69
2023/12/07 05:48:00;;;;;;;43.27;16.90;;;;;;;;;;4985939;28;20672;-69
2023/12/07 05:50:25;;;;;;;44.43;16.33;;;;;;;;;;4986694;28;20265;-69
2023/12/07 05:52:50;;;;;;;42.55;15.73;;;;;;;;;;4980026;28;20517;-69
2023/12/07 05:55:15;;;;;;;35.70;15.57;;;;;;;;;;4985346;28;20026;-69
2023/12/07 05:57:40;;;;;;;39.85;15.60;;;;;;;;;;4983242;28;21109;-69
2023/12/07 06:00:09;;;;;;;39.30;16.00;;;;;;;;;;4976514;28;20046;-69
2023/12/07 06:02:34;;;;;;;40.85;15.27;;;;;;;;;;4976924;28;20049;-69
2023/12/07 06:04:59;;;;;;;41.88;17.05;;;;;;;;;;4988311;28;20507;-69
2023/12/07 06:07:24;;;;;;;42.17;15.63;;;;;;;;;;4984125;28;20030;-69
2023/12/07 06:09:50;;;;;;;37.13;15.17;;;;;;;;;;4980910;28;20274;-69
2023/12/07 06:12:15;;;;;;;37.92;15.80;;;;;;;;;;4956277;28;20320;-69
2023/12/07 06:14:40;;;;;;;37.13;14.55;;;;;;;;;;4979680;28;20030;-69
2023/12/07 06:17:05;;;;;;;37.25;14.82;;;;;;;;;;4975611;28;20034;-69
2023/12/07 06:19:30;;;;;;;39.10;12.70;;;;;;;;;;4978953;28;20026;-69
2023/12/07 06:21:57;;;;;;;33.43;12.60;;;;;;;;;;4980640;28;20842;-69
2023/12/07 06:24:24;;;;;;;34.90;11.27;;;;;;;;;;4980381;28;20268;-69
2023/12/07 06:26:49;;;;;;;37.42;15.32;;;;;;;;;;4981724;28;20451;-69
2023/12/07 06:29:15;;;;;;;39.20;13.23;;;;;;;;;;4982868;28;20101;-69
2023/12/07 06:31:43;;;;;;;36.63;15.67;;;;;;;;;;4983894;28;20066;-69
2023/12/07 06:34:09;;;;;;;41.38;16.35;;;;;;;;;;4980693;28;20274;-69
2023/12/07 06:36:35;;;;;;;35.05;14.13;;;;;;;;;;4983975;28;20065;-69
2023/12/07 06:39:01;;;;;;;37.80;15.43;;;;;;;;;;4985902;28;20030;-69
2023/12/07 06:41:26;;;;;;;30.55;13.23;;;;;;;;;;4985472;28;20045;-69
2023/12/07 06:43:51;;;;;;;28.95;10.40;;;;;;;;;;4987619;28;20109;-70
2023/12/07 06:46:17;;;;;;;27.83;12.02;;;;;;;;;;4972348;28;20030;-69
2023/12/07 06:48:42;;;;;;;12.80;5.88;;;;;;;;;;4989772;28;20037;-69
2023/12/07 06:51:07;;;;;;;30.10;8.38;;;;;;;;;;4987867;28;20160;-69
2023/12/07 06:53:32;;;;;;;17.00;3.83;;;;;;;;;;4987576;28;20022;-69
2023/12/07 06:55:58;;;;;;;21.33;9.93;;;;;;;;;;4982785;28;20026;-69
2023/12/07 06:58:23;;;;;;;11.57;4.72;;;;;;;;;;4979702;28;20022;-69
2023/12/07 07:00:49;;;;;;;26.80;11.15;;;;;;;;;;4985329;28;20026;-69
2023/12/07 07:03:14;;;;;;;12.05;6.55;;;;;;;;;;4985663;28;20625;-69
2023/12/07 07:05:40;;;;;;;5.15;2.83;;;;;;;;;;4991102;28;20010;-69
2023/12/07 07:08:07;;;;;;;17.73;6.35;;;;;;;;;;4989098;28;20060;-69
2023/12/07 07:10:33;;;;;;;13.38;5.82;;;;;;;;;;4991697;28;20026;-69
2023/12/07 07:13:04;;;;;;;20.60;7.57;;;;;;;;;;4963972;28;20030;-69
2023/12/07 07:15:33;;;;;;;37.80;13.10;;;;;;;;;;4980083;28;20026;-69
2023/12/07 07:17:58;;;;;;;15.50;7.70;;;;;;;;;;4976847;28;20034;-69
2023/12/07 07:20:24;;;;;;;30.75;11.57;;;;;;;;;;4984100;28;20018;-69
2023/12/07 07:22:49;;;;;;;18.90;8.02;;;;;;;;;;4982343;28;20645;-69
2023/12/07 07:25:16;;;;;;;12.82;5.45;;;;;;;;;;4986232;28;20630;-69
2023/12/07 07:27:41;;;;;;;20.05;6.78;;;;;;;;;;4986720;28;20097;-69
2023/12/07 07:30:08;;;;;;;21.27;6.90;;;;;;;;;;4985025;28;20433;-69
2023/12/07 07:32:33;;;;;;;18.10;7.20;;;;;;;;;;4983924;28;20026;-69
2023/12/07 07:34:59;;;;;;;6.45;4.00;;;;;;;;;;4986569;28;20030;-69
2023/12/07 07:37:24;;;;;;;22.40;10.02;;;;;;;;;;4988102;28;20093;-69
2023/12/07 07:39:49;;;;;;;15.57;5.68;;;;;;;;;;4980523;28;20019;-69
2023/12/07 07:42:14;;;;;;;9.02;5.32;;;;;;;;;;4979191;28;20087;-70
2023/12/07 07:44:40;;;;;;;19.55;7.60;;;;;;;;;;4983639;28;20078;-69
2023/12/07 07:47:05;;;;;;;14.18;5.18;;;;;;;;;;4986999;28;20101;-69
2023/12/07 07:49:30;;;;;;;17.55;7.93;;;;;;;;;;4985056;28;20095;-69
2023/12/07 07:51:55;;;;;;;24.08;10.77;;;;;;;;;;4981064;28;20531;-69
2023/12/07 07:54:20;;;;;;;23.65;9.43;;;;;;;;;;4987562;28;20034;-69
2023/12/07 07:56:46;;;;;;;29.73;11.85;;;;;;;;;;4980996;28;20030;-69
2023/12/07 07:59:11;;;;;;;24.63;10.48;;;;;;;;;;4982897;28;20029;-70
2023/12/07 08:01:36;;;;;;;26.20;10.23;;;;;;;;;;4982713;28;20038;-70
2023/12/07 08:04:01;;;;;;;27.27;10.63;;;;;;;;;;4984243;28;20031;-69
2023/12/07 08:06:27;;;;;;;16.50;4.50;;;;;;;;;;4979317;28;20015;-69
2023/12/07 08:08:52;;;;;;;13.73;5.90;;;;;;;;;;4983625;28;20509;-69
2023/12/07 08:11:17;;;;;;;18.00;8.60;;;;;;;;;;4987864;28;20265;-69
2023/12/07 08:13:42;;;;;;;19.35;9.60;;;;;;;;;;4984177;28;20772;-69
2023/12/07 08:16:09;;;;;;;14.80;6.07;;;;;;;;;;4984855;28;20363;-69
2023/12/07 08:18:34;;;;;;;31.27;10.57;;;;;;;;;;4981637;28;20792;-69
2023/12/07 08:20:59;;;;;;;33.17;11.20;;;;;;;;;;4985465;28;20022;-69
2023/12/07 08:23:24;;;;;;;24.23;9.77;;;;;;;;;;4981850;28;20027;-69
2023/12/07 08:25:49;;;;;;;33.03;13.60;;;;;;;;;;4980534;28;20026;-69
2023/12/07 08:28:15;;;;;;;22.35;8.32;;;;;;;;;;4981089;28;20789;-69
2023/12/07 08:30:40;;;;;;;22.50;9.65;;;;;;;;;;4986041;28;20066;-69
2023/12/07 08:33:05;;;;;;;23.87;9.17;;;;;;;;;;4982524;28;20076;-69
2023/12/07 08:35:30;;;;;;;13.90;6.30;;;;;;;;;;4980619;28;20293;-69
2023/12/07 08:37:55;;;;;;;9.70;5.32;;;;;;;;;;4984155;28;20297;-69
2023/12/07 08:40:20;;;;;;;22.20;8.98;;;;;;;;;;4985073;28;20029;-70
2023/12/07 08:42:50;;;;;;;25.27;11.80;;;;;;;;;;4983222;28;20053;-70
2023/12/07 08:45:15;;;;;;;27.02;11.95;;;;;;;;;;4986855;28;20480;-69
2023/12/07 08:47:41;;;;;;;26.27;11.23;;;;;;;;;;4982860;28;20031;-69
2023/12/07 08:50:09;;;;;;;26.77;9.93;;;;;;;;;;4979936;28;20125;-70
2023/12/07 08:52:35;;;;;;;25.27;10.35;;;;;;;;;;4980923;28;20026;-70
2023/12/07 08:55:00;;;;;;;21.42;8.35;;;;;;;;;;4985417;28;20703;-70
2023/12/07 08:57:25;;;;;;;19.30;9.25;;;;;;;;;;4983882;28;20033;-70
2023/12/07 08:59:50;;;;;;;24.27;12.23;;;;;;;;;;4984937;28;20026;-70
2023/12/07 09:02:16;;;;;;;19.03;8.53;;;;;;;;;;4985295;28;20787;-70
2023/12/07 09:04:41;;;;;;;17.70;8.37;;;;;;;;;;4983697;28;20254;-70
2023/12/07 09:07:06;;;;;;;10.97;6.20;;;;;;;;;;4981484;28;20784;-69
2023/12/07 09:09:32;;;;;;;21.70;8.40;;;;;;;;;;4985328;28;20272;-69
2023/12/07 09:11:57;;;;;;;19.35;8.63;;;;;;;;;;4983765;28;20030;-69
2023/12/07 09:14:22;;;;;;;21.70;9.57;;;;;;;;;;4986990;28;20113;-69
2023/12/07 09:16:48;;;;;;;19.63;7.80;;;;;;;;;;4987723;28;20258;-69
2023/12/07 09:19:13;;;;;;;19.42;8.63;;;;;;;;;;4982420;28;20288;-69
2023/12/07 09:21:39;;;;;;;18.15;7.53;;;;;;;;;;4978030;28;20030;-69
2023/12/07 09:24:05;;;;;;;18.58;8.20;;;;;;;;;;4984166;28;20010;-69
2023/12/07 09:26:30;;;;;;;15.95;8.00;;;;;;;;;;4984518;28;20611;-69
2023/12/07 09:28:56;;;;;;;22.13;8.40;;;;;;;;;;4979801;28;20096;-69
2023/12/07 09:31:21;;;;;;;15.57;7.97;;;;;;;;;;4982769;28;20022;-69
2023/12/07 09:33:47;;;;;;;13.60;6.43;;;;;;;;;;4987856;28;20266;-69
2023/12/07 09:36:18;;;;;;;10.10;5.00;;;;;;;;;;4982792;28;20413;-69
2023/12/07 09:38:43;;;;;;;24.30;8.38;;;;;;;;;;4978570;28;20034;-68
2023/12/07 09:41:08;;;;;;;13.18;4.75;;;;;;;;;;4980829;28;20105;-69
2023/12/07 09:43:33;;;;;;;20.02;8.98;;;;;;;;;;4984191;28;20478;-69
2023/12/07 09:45:59;;;;;;;17.85;7.70;;;;;;;;;;4982050;28;20366;-69
2023/12/07 09:48:25;;;;;;;26.77;11.73;;;;;;;;;;4982437;28;20026;-69
2023/12/07 09:50:51;;;;;;;20.38;7.68;;;;;;;;;;4986628;28;20539;-69
2023/12/07 09:53:17;;;;;;;13.30;6.45;;;;;;;;;;4981115;28;20041;-69
2023/12/07 09:55:43;;;;;;;21.65;10.48;;;;;;;;;;4981728;28;20047;-69
2023/12/07 09:58:08;;;;;;;31.07;13.77;;;;;;;;;;4987510;28;20110;-69
2023/12/07 10:00:33;;;;;;;30.67;10.20;;;;;;;;;;4986677;28;20313;-69
2023/12/07 10:02:59;;;;;;;27.48;10.93;;;;;;;;;;4984277;28;20073;-69
2023/12/07 10:05:24;;;;;;;17.75;9.65;;;;;;;;;;4986604;28;20018;-69
2023/12/07 10:07:50;;;;;;;20.00;9.57;;;;;;;;;;4991230;28;20022;-69
2023/12/07 10:10:16;;;;;;;12.60;4.93;;;;;;;;;;4982793;28;20026;-69
2023/12/07 10:13:02;;;;;;;17.80;8.32;;;;;;;;;;4981517;28;20047;-69
2023/12/07 10:15:28;;;;;;;15.82;6.90;;;;;;;;;;4990569;28;20044;-69
2023/12/07 10:17:58;;;;;;;22.55;8.90;;;;;;;;;;4987618;28;20011;-69
2023/12/07 10:20:24;;;;;;;36.08;11.93;;;;;;;;;;4989611;28;20022;-69
2023/12/07 10:23:03;;;;;;;23.40;11.48;;;;;;;;;;4985697;28;20023;-69
2023/12/07 10:25:29;;;;;;;20.55;10.73;;;;;;;;;;4980618;28;20034;-69
2023/12/07 10:27:54;;;;;;;20.95;8.18;;;;;;;;;;4984634;28;20444;-69
2023/12/07 10:30:25;;;;;;;25.38;11.13;;;;;;;;;;4981973;28;20038;-68
2023/12/07 10:32:50;;;;;;;28.45;12.90;;;;;;;;;;4986116;28;20056;-68
2023/12/07 10:35:16;;;;;;;29.40;8.70;;;;;;;;;;4988358;28;20517;-68
2023/12/07 10:37:41;;;;;;;29.20;13.52;;;;;;;;;;4990719;28;20293;-68
2023/12/07 10:40:07;;;;;;;24.03;11.00;;;;;;;;;;4986127;28;20026;-68
2023/12/07 10:42:33;;;;;;;18.20;7.85;;;;;;;;;;4987339;28;20364;-68
2023/12/07 10:45:03;;;;;;;22.98;10.88;;;;;;;;;;4987263;28;20098;-68
2023/12/07 10:47:28;;;;;;;30.27;12.88;;;;;;;;;;4988860;28;20025;-70
2023/12/07 10:49:56;;;;;;;27.45;11.80;;;;;;;;;;4984017;28;20051;-68
2023/12/07 10:52:23;;;;;;;13.32;6.43;;;;;;;;;;4983691;28;20022;-68
2023/12/07 10:55:02;;;;;;;23.10;9.95;;;;;;;;;;4985197;28;20446;-69
2023/12/07 10:57:29;;;;;;;27.63;10.43;;;;;;;;;;4986487;28;20386;-69
2023/12/07 10:59:55;;;;;;;39.10;13.60;;;;;;;;;;4987732;28;20434;-68
2023/12/07 11:02:21;;;;;;;4.68;3.17;;;;;;;;;;4987873;28;20076;-68
2023/12/07 11:04:46;;;;;;;6.13;4.10;;;;;;;;;;4985541;28;20018;-68
2023/12/07 11:07:14;;;;;;;23.40;9.75;;;;;;;;;;4983533;28;20084;-69
2023/12/07 11:09:44;;;;;;;19.15;9.85;;;;;;;;;;4987087;28;20026;-69
2023/12/07 11:12:13;;;;;;;17.73;8.30;;;;;;;;;;4986509;28;20046;-69
2023/12/07 11:14:39;;;;;;;24.10;9.27;;;;;;;;;;4983821;28;20490;-69
2023/12/07 11:17:04;;;;;;;17.83;7.80;;;;;;;;;;4986566;28;20092;-69
2023/12/07 11:19:29;;;;;;;15.75;8.07;;;;;;;;;;4985940;28;20072;-68
2023/12/07 11:21:55;;;;;;;14.90;7.03;;;;;;;;;;4986191;28;20053;-69
2023/12/07 11:24:22;;;;;;;15.27;9.15;;;;;;;;;;4986830;28;20306;-69
2023/12/07 11:26:48;;;;;;;21.70;9.40;;;;;;;;;;4986730;28;20027;-69
2023/12/07 11:29:13;;;;;;;15.93;5.15;;;;;;;;;;4985805;28;20372;-69
2023/12/07 11:31:38;;;;;;;19.02;8.23;;;;;;;;;;4989367;28;20034;-69
2023/12/07 11:34:07;;;;;;;21.75;9.13;;;;;;;;;;4987087;28;20026;-69
2023/12/07 11:36:33;;;;;;;22.60;9.65;;;;;;;;;;4982119;28;20111;-69
2023/12/07 11:39:01;;;;;;;16.48;7.40;;;;;;;;;;4984686;28;20454;-69
2023/12/07 11:41:29;;;;;;;16.20;6.78;;;;;;;;;;4986913;28;20094;-69
2023/12/07 11:43:58;;;;;;;15.50;6.90;;;;;;;;;;4990306;28;20022;-69
2023/12/07 11:46:24;;;;;;;12.65;5.13;;;;;;;;;;4990958;28;20117;-69
2023/12/07 11:48:49;;;;;;;23.13;7.32;;;;;;;;;;4988529;28;20054;-69
2023/12/07 11:51:15;;;;;;;20.63;7.88;;;;;;;;;;4988127;28;20064;-69
2023/12/07 11:53:40;;;;;;;19.45;7.45;;;;;;;;;;4990083;28;20093;-67
2023/12/07 11:56:06;;;;;;;13.00;4.27;;;;;;;;;;4989349;28;20092;-68
2023/12/07 11:58:32;;;;;;;13.48;7.00;;;;;;;;;;4985092;28;20282;-67
2023/12/07 12:00:57;;;;;;;11.10;5.50;;;;;;;;;;4987102;28;20076;-67
2023/12/07 12:03:23;;;;;;;12.40;6.55;;;;;;;;;;4986098;28;20023;-67
2023/12/07 12:05:48;;;;;;;10.45;5.72;;;;;;;;;;4983144;28;20025;-68
2023/12/07 12:08:15;;;;;;;11.68;6.13;;;;;;;;;;4997020;28;20049;-67
2023/12/07 12:10:42;;;;;;;7.00;3.53;;;;;;;;;;5002103;28;20532;-67
2023/12/07 12:13:07;;;;;;;17.52;8.27;;;;;;;;;;4991069;28;20489;-67
2023/12/07 12:15:32;;;;;;;14.45;6.53;;;;;;;;;;4989017;28;20045;-67
2023/12/07 12:17:58;;;;;;;13.68;6.07;;;;;;;;;;4984706;28;20097;-67
2023/12/07 12:20:24;;;;;;;17.10;5.68;;;;;;;;;;4978550;28;20026;-68
2023/12/07 12:22:53;;;;;;;14.18;7.20;;;;;;;;;;4988153;28;20366;-67
2023/12/07 12:25:18;;;;;;;14.27;7.32;;;;;;;;;;4989384;28;20489;-68
2023/12/07 12:27:44;;;;;;;11.13;5.53;;;;;;;;;;4987822;28;20101;-69
2023/12/07 12:30:10;;;;;;;8.57;5.05;;;;;;;;;;4987821;28;20034;-67
2023/12/07 12:32:45;;;;;;;11.52;5.13;;;;;;;;;;4985819;28;20068;-67
2023/12/07 12:35:11;;;;;;;10.18;5.72;;;;;;;;;;4982729;28;20113;-67
2023/12/07 12:37:37;;;;;;;13.90;5.75;;;;;;;;;;4980996;28;20026;-67
2023/12/07 12:40:06;;;;;;;4.53;3.03;;;;;;;;;;4989988;28;20642;-67
2023/12/07 12:42:32;;;;;;;19.65;8.48;;;;;;;;;;4985282;28;20046;-67
2023/12/07 12:44:57;;;;;;;12.43;5.93;;;;;;;;;;4982337;28;20378;-67
2023/12/07 12:47:22;;;;;;;7.03;3.37;;;;;;;;;;4988836;28;20053;-67
2023/12/07 12:49:47;;;;;;;8.45;5.30;;;;;;;;;;4985726;28;20288;-67
2023/12/07 12:52:16;;;;;;;8.07;3.43;;;;;;;;;;4981816;28;20026;-67
2023/12/07 12:54:44;;;;;;;8.32;3.80;;;;;;;;;;4981683;28;20274;-67
2023/12/07 12:57:09;;;;;;;16.60;7.05;;;;;;;;;;4981503;28;20030;-67
2023/12/07 12:59:35;;;;;;;12.05;3.85;;;;;;;;;;4989105;28;20015;-67
2023/12/07 13:02:00;;;;;;;11.13;5.30;;;;;;;;;;4972383;28;20033;-67
2023/12/07 13:04:25;;;;;;;7.67;3.73;;;;;;;;;;4986280;28;20113;-67
2023/12/07 13:06:50;;;;;;;13.23;6.60;;;;;;;;;;4984226;28;20274;-67
2023/12/07 13:09:16;;;;;;;17.75;6.80;;;;;;;;;;4987000;28;20033;-68
2023/12/07 13:11:41;;;;;;;15.20;5.85;;;;;;;;;;4985334;28;20035;-67
2023/12/07 13:14:07;;;;;;;12.07;6.03;;;;;;;;;;4980912;28;20026;-67
2023/12/07 13:16:32;;;;;;;15.77;4.45;;;;;;;;;;4988202;28;20253;-67
2023/12/07 13:18:57;;;;;;;9.02;3.85;;;;;;;;;;4988443;28;20049;-67
2023/12/07 13:21:22;;;;;;;11.50;5.93;;;;;;;;;;4990808;28;20441;-67
2023/12/07 13:23:48;;;;;;;10.73;5.55;;;;;;;;;;4987771;28;20019;-68
2023/12/07 13:26:13;;;;;;;14.70;5.57;;;;;;;;;;4970914;28;20031;-67
2023/12/07 13:28:38;;;;;;;17.13;5.75;;;;;;;;;;4983139;28;20273;-67
2023/12/07 13:31:03;;;;;;;11.37;5.77;;;;;;;;;;4989675;28;20030;-67
2023/12/07 13:33:29;;;;;;;8.35;3.35;;;;;;;;;;4991725;28;20273;-67
2023/12/07 13:35:54;;;;;;;21.25;3.80;;;;;;;;;;4992222;28;20038;-67
2023/12/07 13:38:20;;;;;;;12.82;6.70;;;;;;;;;;4992796;28;20496;-67
2023/12/07 13:40:46;;;;;;;4.97;2.67;;;;;;;;;;4987471;28;20057;-67
2023/12/07 13:43:12;;;;;;;8.63;3.22;;;;;;;;;;4987436;28;20018;-67
2023/12/07 13:45:37;;;;;;;15.05;6.10;;;;;;;;;;4991661;28;20022;-67
2023/12/07 13:48:02;;;;;;;19.23;5.50;;;;;;;;;;4991370;28;20034;-67
2023/12/07 13:50:28;;;;;;;7.53;3.72;;;;;;;;;;4990581;28;20026;-67
2023/12/07 13:52:53;;;;;;;7.20;3.80;;;;;;;;;;4985557;28;20160;-67
2023/12/07 13:55:18;;;;;;;11.43;6.20;;;;;;;;;;4990692;28;20258;-67
2023/12/07 13:57:43;;;;;;;18.73;5.20;;;;;;;;;;4990632;28;20788;-67
2023/12/07 14:00:12;;;;;;;8.57;5.10;;;;;;;;;;4991193;28;20437;-67
2023/12/07 14:02:37;;;;;;;8.90;5.00;;;;;;;;;;4991259;28;20301;-67
2023/12/07 14:05:04;;;;;;;5.85;3.90;;;;;;;;;;4991510;28;20485;-67
2023/12/07 14:07:29;;;;;;;6.28;3.45;;;;;;;;;;4987254;28;20015;-67
2023/12/07 14:09:55;;;;;;;9.13;3.78;;;;;;;;;;4988638;28;20030;-67
2023/12/07 14:12:20;;;;;;;12.97;4.40;;;;;;;;;;4989506;28;20082;-67
2023/12/07 14:14:46;;;;;;;14.85;5.03;;;;;;;;;;4985947;28;20368;-68